createdAt,value
2022-10-10T00:02:48.409Z,9.63
2022-10-10T00:05:30.984Z,8.88
2022-10-10T00:08:19.787Z,9.30
2022-10-10T00:11:02.047Z,9.63
2022-10-10T00:13:50.766Z,10.25
2022-10-10T00:16:33.019Z,9.38
2022-10-10T00:19:21.717Z,9.35
2022-10-10T00:22:04.039Z,9.75
2022-10-10T00:24:52.712Z,9.40
2022-10-10T00:27:35.013Z,8.70
2022-10-10T00:30:23.786Z,9.07
2022-10-10T00:33:12.012Z,9.15
2022-10-10T00:35:53.722Z,9.48
2022-10-10T00:38:42.733Z,7.82
2022-10-10T00:41:27.906Z,8.02
2022-10-10T00:44:21.731Z,7.80
2022-10-10T00:47:10.651Z,8.23
2022-10-10T00:50:00.772Z,7.50
2022-10-10T00:52:42.973Z,8.55
2022-10-10T00:55:31.726Z,7.88
2022-10-10T00:58:22.773Z,7.28
2022-10-10T01:01:11.041Z,7.93
2022-10-10T01:03:53.705Z,7.72
2022-10-10T01:06:42.631Z,8.00
2022-10-10T01:09:31.703Z,7.25
2022-10-10T01:12:38.763Z,7.75
2022-10-10T01:16:17.011Z,7.28
2022-10-10T01:19:20.702Z,6.82
2022-10-10T01:25:23.696Z,7.72
2022-10-10T01:28:40.548Z,7.22
2022-10-10T01:31:32.696Z,7.78
2022-10-10T01:35:02.990Z,8.57
2022-10-10T01:37:57.709Z,7.63
2022-10-10T01:41:16.761Z,7.35
2022-10-10T01:44:07.761Z,7.25
2022-10-10T01:46:50.096Z,8.05
2022-10-10T01:49:41.717Z,8.10
2022-10-10T01:52:44.992Z,8.10
2022-10-10T01:55:57.712Z,7.50
2022-10-10T01:58:52.685Z,7.68
2022-10-10T02:02:19.763Z,7.53
2022-10-10T02:05:19.012Z,7.63
2022-10-10T02:08:30.028Z,8.48
2022-10-10T02:11:17.988Z,7.95
2022-10-10T02:14:23.709Z,7.53
2022-10-10T02:17:16.610Z,7.65
2022-10-10T02:20:08.787Z,9.32
2022-10-10T02:22:53.281Z,7.65
2022-10-10T02:25:49.717Z,8.40
2022-10-10T02:28:47.017Z,8.82
2022-10-10T02:31:55.746Z,8.30
2022-10-10T02:34:44.024Z,7.95
2022-10-10T02:37:33.726Z,8.10
2022-10-10T02:40:28.710Z,8.13
2022-10-10T02:43:21.614Z,7.57
2022-10-10T02:46:14.786Z,8.30
2022-10-10T02:48:56.985Z,8.13
2022-10-10T02:51:46.773Z,9.52
2022-10-10T02:58:16.714Z,7.05
2022-10-10T03:01:05.776Z,7.97
2022-10-10T03:03:48.018Z,8.52
2022-10-10T03:06:36.761Z,8.25
2022-10-10T03:09:19.069Z,9.32
2022-10-10T03:12:07.718Z,8.60
2022-10-10T03:14:56.715Z,7.85
2022-10-10T03:17:45.743Z,10.25
2022-10-10T03:20:28.008Z,9.85
2022-10-10T03:23:17.718Z,8.38
2022-10-10T03:26:01.147Z,8.80
2022-10-10T03:28:49.756Z,10.05
2022-10-10T03:31:31.993Z,9.32
2022-10-10T03:34:20.713Z,8.98
2022-10-10T03:37:09.718Z,8.70
2022-10-10T03:39:51.923Z,10.25
2022-10-10T03:42:40.730Z,9.85
2022-10-10T03:45:23.191Z,8.40
2022-10-10T03:48:11.801Z,7.18
2022-10-10T03:51:00.986Z,6.10
2022-10-10T03:53:43.700Z,6.50
2022-10-10T03:56:32.633Z,6.00
2022-10-10T03:59:21.765Z,5.38
2022-10-10T04:02:10.032Z,5.97
2022-10-10T04:04:52.706Z,6.07
2022-10-10T04:07:42.625Z,7.55
2022-10-10T04:10:25.714Z,6.65
2022-10-10T04:13:14.021Z,7.15
2022-10-10T04:16:00.705Z,7.18
2022-10-10T04:18:49.734Z,6.85
2022-10-10T04:21:31.989Z,6.65
2022-10-10T04:24:20.706Z,6.82
2022-10-10T04:27:02.976Z,6.63
2022-10-10T04:29:51.723Z,6.75
2022-10-10T04:32:34.174Z,7.20
2022-10-10T04:35:22.726Z,7.22
2022-10-10T04:38:05.654Z,6.75
2022-10-10T04:40:57.730Z,6.78
2022-10-10T04:43:39.980Z,7.43
2022-10-10T04:46:28.698Z,6.93
2022-10-10T04:49:11.167Z,6.85
2022-10-10T04:51:59.700Z,6.88
2022-10-10T04:54:42.000Z,6.90
2022-10-10T04:57:30.704Z,7.95
2022-10-10T05:00:26.708Z,6.80
2022-10-10T05:03:11.338Z,7.60
2022-10-10T05:05:59.751Z,8.00
2022-10-10T05:08:48.002Z,7.70
2022-10-10T05:11:29.715Z,7.88
2022-10-10T05:14:11.888Z,7.47
2022-10-10T05:17:00.690Z,7.45
2022-10-10T05:19:49.598Z,7.80
2022-10-10T05:22:38.710Z,8.13
2022-10-10T05:25:21.320Z,7.78
2022-10-10T05:28:09.741Z,7.13
2022-10-10T05:30:53.739Z,7.00
2022-10-10T05:33:42.766Z,6.10
2022-10-10T05:36:32.079Z,5.75
2022-10-10T05:39:14.772Z,6.50
2022-10-10T05:41:57.027Z,7.57
2022-10-10T05:44:46.684Z,7.22
2022-10-10T05:47:35.714Z,6.00
2022-10-10T05:50:43.080Z,6.72
2022-10-10T05:53:34.734Z,8.13
2022-10-10T05:56:18.209Z,9.90
2022-10-10T05:59:06.733Z,10.35
2022-10-10T06:01:49.125Z,10.52
2022-10-10T06:04:38.757Z,10.68
2022-10-10T06:07:21.050Z,10.77
2022-10-10T06:10:09.701Z,10.13
2022-10-10T06:12:58.688Z,10.30
2022-10-10T06:15:47.992Z,9.95
2022-10-10T06:18:30.744Z,10.02
2022-10-10T06:21:21.130Z,9.60
2022-10-10T06:24:04.137Z,9.23
2022-10-10T06:26:45.985Z,11.35
2022-10-10T06:29:34.753Z,9.13
2022-10-10T06:32:23.985Z,11.32
2022-10-10T06:35:05.761Z,9.88
2022-10-10T06:37:55.009Z,10.00
2022-10-10T06:40:36.778Z,9.98
2022-10-10T06:43:25.963Z,9.25
2022-10-10T06:46:08.715Z,9.32
2022-10-10T06:48:56.990Z,9.05
2022-10-10T06:51:39.779Z,10.02
2022-10-10T06:54:28.988Z,11.75
2022-10-10T06:57:11.753Z,10.85
2022-10-10T07:00:30.642Z,13.82
2022-10-10T07:03:20.740Z,12.43
2022-10-10T07:06:06.577Z,11.98
2022-10-10T07:08:55.692Z,13.57
2022-10-10T07:11:38.071Z,14.25
2022-10-10T07:14:26.745Z,13.52
2022-10-10T07:17:09.107Z,13.98
2022-10-10T07:19:57.695Z,13.68
2022-10-10T07:22:40.124Z,14.88
2022-10-10T07:25:28.690Z,11.32
2022-10-10T07:28:17.654Z,10.95
2022-10-10T07:31:11.750Z,11.70
2022-10-10T07:34:02.694Z,11.63
2022-10-10T07:36:47.862Z,10.98
2022-10-10T07:39:40.689Z,11.80
2022-10-10T07:42:29.950Z,10.30
2022-10-10T07:45:13.710Z,9.43
2022-10-10T07:48:01.982Z,10.27
2022-10-10T07:50:47.712Z,10.00
2022-10-10T07:53:35.974Z,9.52
2022-10-10T07:56:18.676Z,12.30
2022-10-10T07:59:13.745Z,10.80
2022-10-10T08:02:03.189Z,11.43
2022-10-10T08:04:45.764Z,11.48
2022-10-10T08:07:33.966Z,10.77
2022-10-10T08:10:17.761Z,11.30
2022-10-10T08:13:06.047Z,11.07
2022-10-10T08:15:48.662Z,11.60
2022-10-10T08:18:38.146Z,11.93
2022-10-10T08:21:21.683Z,11.45
2022-10-10T08:24:10.977Z,12.70
2022-10-10T08:26:53.686Z,13.32
2022-10-10T08:29:42.041Z,14.57
2022-10-10T08:32:24.370Z,13.52
2022-10-10T08:35:13.951Z,12.77
2022-10-10T08:37:55.700Z,11.70
2022-10-10T08:41:03.099Z,10.95
2022-10-10T08:43:58.706Z,10.40
2022-10-10T08:46:43.898Z,9.57
2022-10-10T08:49:53.716Z,9.43
2022-10-10T08:52:58.731Z,11.32
2022-10-10T08:55:46.188Z,9.07
2022-10-10T08:58:46.768Z,7.82
2022-10-10T09:02:18.779Z,8.48
2022-10-10T09:04:47.718Z,8.82
2022-10-10T09:07:45.803Z,9.27
2022-10-10T09:10:58.021Z,9.40
2022-10-10T09:13:49.968Z,8.55
2022-10-10T09:16:55.760Z,9.30
2022-10-10T09:19:57.960Z,10.05
2022-10-10T09:22:48.720Z,9.77
2022-10-10T09:25:47.002Z,9.55
2022-10-10T09:28:46.826Z,10.43
2022-10-10T09:31:41.412Z,11.18
2022-10-10T09:34:35.721Z,10.90
2022-10-10T09:37:48.394Z,10.38
2022-10-10T09:40:34.692Z,11.30
2022-10-10T09:43:28.033Z,12.50
2022-10-10T09:46:10.695Z,12.55
2022-10-10T09:49:00.994Z,13.93
2022-10-10T09:51:42.683Z,12.77
2022-10-10T09:54:31.964Z,13.32
2022-10-10T09:57:14.750Z,14.10
2022-10-10T10:03:28.678Z,13.40
2022-10-10T10:06:10.963Z,13.93
2022-10-10T10:09:01.694Z,14.10
2022-10-10T10:11:47.000Z,14.65
2022-10-10T10:14:44.743Z,14.38
2022-10-10T10:17:32.013Z,15.20
2022-10-10T10:20:38.772Z,15.30
2022-10-10T10:24:19.117Z,15.02
2022-10-10T10:27:24.706Z,14.82
2022-10-10T10:30:06.953Z,14.13
2022-10-10T10:33:39.686Z,15.82
2022-10-10T10:36:57.674Z,16.02
2022-10-10T10:39:51.951Z,16.95
2022-10-10T10:42:49.006Z,14.50
2022-10-10T10:45:45.783Z,15.35
2022-10-10T10:48:54.699Z,14.75
2022-10-10T10:51:45.148Z,13.93
2022-10-10T10:54:59.762Z,13.57
2022-10-10T10:59:05.461Z,13.93
2022-10-10T11:02:06.218Z,13.35
2022-10-10T11:05:29.650Z,13.15
2022-10-10T11:08:50.680Z,14.38
2022-10-10T11:11:55.013Z,14.32
2022-10-10T11:14:55.761Z,13.95
2022-10-10T11:17:52.942Z,13.75
2022-10-10T11:20:46.734Z,13.88
2022-10-10T11:23:40.198Z,15.35
2022-10-10T11:26:45.674Z,14.50
2022-10-10T11:29:39.089Z,15.35
2022-10-10T11:32:36.732Z,15.65
2022-10-10T11:35:33.179Z,16.23
2022-10-10T11:38:25.705Z,16.27
2022-10-10T11:41:59.686Z,14.75
2022-10-10T11:44:47.943Z,16.27
2022-10-10T11:47:42.670Z,16.83
2022-10-10T11:50:30.367Z,15.95
2022-10-10T11:53:43.684Z,17.13
2022-10-10T11:56:41.263Z,16.98
2022-10-10T11:59:39.065Z,16.13
2022-10-10T12:02:29.979Z,16.90
2022-10-10T12:05:13.751Z,16.35
2022-10-10T12:08:08.033Z,17.25
2022-10-10T12:11:08.702Z,16.08
2022-10-10T12:14:01.943Z,17.48
2022-10-10T12:16:52.702Z,15.82
2022-10-10T12:19:41.964Z,15.85
2022-10-10T12:22:37.674Z,16.13
2022-10-10T12:25:33.949Z,15.85
2022-10-10T12:28:21.783Z,16.17
2022-10-10T12:31:13.035Z,14.73
2022-10-10T12:33:55.670Z,14.43
2022-10-10T12:37:07.616Z,13.13
2022-10-10T12:40:14.097Z,14.13
2022-10-10T12:43:03.739Z,15.27
2022-10-10T12:45:45.998Z,14.18
2022-10-10T12:48:34.707Z,13.43
2022-10-10T12:51:30.136Z,13.35
2022-10-10T12:54:49.665Z,14.02
2022-10-10T12:57:35.178Z,13.68
2022-10-10T13:00:32.059Z,13.32
2022-10-10T13:03:29.035Z,12.60
2022-10-10T13:06:32.671Z,13.05
2022-10-10T13:09:25.052Z,13.13
2022-10-10T13:12:15.673Z,13.73
2022-10-10T13:14:58.105Z,13.30
2022-10-10T13:17:49.685Z,13.43
2022-10-10T13:20:51.731Z,13.38
2022-10-10T13:23:41.942Z,14.10
2022-10-10T13:26:35.655Z,14.40
2022-10-10T13:29:44.679Z,15.35
2022-10-10T13:32:38.669Z,17.25
2022-10-10T13:35:34.674Z,15.70
2022-10-10T13:38:20.114Z,16.98
2022-10-10T13:41:11.651Z,15.85
2022-10-10T13:43:54.027Z,15.77
2022-10-10T13:46:43.834Z,15.68
2022-10-10T13:49:35.042Z,17.42
2022-10-10T13:52:31.752Z,16.90
2022-10-10T13:55:35.117Z,17.23
2022-10-10T13:58:24.688Z,18.13
2022-10-10T14:01:21.178Z,16.65
2022-10-10T14:04:17.992Z,17.13
2022-10-10T14:07:34.680Z,17.67
2022-10-10T14:10:22.676Z,19.02
2022-10-10T14:13:14.738Z,17.98
2022-10-10T14:16:28.964Z,17.52
2022-10-10T14:19:11.737Z,19.08
2022-10-10T14:21:59.998Z,19.70
2022-10-10T14:24:42.737Z,18.40
2022-10-10T14:27:36.937Z,18.63
2022-10-10T14:30:23.682Z,20.00
2022-10-10T14:33:20.982Z,22.35
2022-10-10T14:36:04.750Z,22.95
2022-10-10T14:38:52.931Z,22.48
2022-10-10T14:41:35.732Z,24.27
2022-10-10T14:44:23.973Z,25.30
2022-10-10T14:47:05.672Z,26.35
2022-10-10T14:49:57.648Z,27.73
2022-10-10T14:52:40.671Z,27.52
2022-10-10T14:55:29.472Z,25.55
2022-10-10T14:58:12.714Z,23.00
2022-10-10T15:01:03.298Z,20.02
2022-10-10T15:03:46.760Z,18.92
2022-10-10T15:06:49.963Z,19.50
2022-10-10T15:09:43.008Z,18.25
2022-10-10T15:12:35.987Z,19.02
2022-10-10T15:15:19.684Z,17.33
2022-10-10T15:18:26.655Z,17.55
2022-10-10T15:21:20.687Z,17.30
2022-10-10T15:24:02.948Z,19.00
2022-10-10T15:26:51.668Z,17.75
2022-10-10T15:29:40.071Z,17.30
2022-10-10T15:32:22.708Z,18.05
2022-10-10T15:35:11.767Z,18.05
2022-10-10T15:37:55.114Z,17.65
2022-10-10T15:40:43.710Z,16.38
2022-10-10T15:43:26.090Z,18.80
2022-10-10T15:46:16.700Z,17.63
2022-10-10T15:49:00.006Z,17.10
2022-10-10T15:51:53.686Z,17.35
2022-10-10T15:54:42.675Z,17.60
2022-10-10T15:57:24.981Z,17.02
2022-10-10T16:00:13.745Z,17.02
2022-10-10T16:02:56.020Z,16.63
2022-10-10T16:05:44.772Z,16.70
2022-10-10T16:08:33.968Z,16.92
2022-10-10T16:11:19.718Z,16.42
2022-10-10T16:14:08.613Z,15.90
2022-10-10T16:17:01.212Z,15.13
2022-10-10T16:19:49.979Z,15.13
2022-10-10T16:22:32.723Z,16.20
2022-10-10T16:25:23.176Z,15.30
2022-10-10T16:28:09.376Z,15.50
2022-10-10T16:31:02.046Z,15.18
2022-10-10T16:33:47.169Z,15.25
2022-10-10T16:36:38.692Z,15.02
2022-10-10T16:39:21.032Z,15.18
2022-10-10T16:42:09.709Z,15.15
2022-10-10T16:44:52.124Z,15.18
2022-10-10T16:47:41.793Z,16.02
2022-10-10T16:50:23.982Z,15.48
2022-10-10T16:53:12.682Z,16.65
2022-10-10T16:56:01.699Z,16.65
2022-10-10T16:58:44.243Z,15.93
2022-10-10T17:01:35.789Z,15.52
2022-10-10T17:04:18.117Z,16.80
2022-10-10T17:07:06.737Z,17.55
2022-10-10T17:09:56.127Z,16.60
2022-10-10T17:12:37.741Z,17.25
2022-10-10T17:15:26.970Z,15.95
2022-10-10T17:18:09.884Z,17.08
2022-10-10T17:20:59.111Z,17.30
2022-10-10T17:23:42.675Z,17.23
2022-10-10T17:26:33.767Z,17.13
2022-10-10T17:29:16.153Z,17.45
2022-10-10T17:32:06.783Z,17.60
2022-10-10T17:34:48.982Z,17.52
2022-10-10T17:37:37.722Z,17.58
2022-10-10T17:40:20.043Z,17.52
2022-10-10T17:43:11.597Z,17.83
2022-10-10T17:46:01.426Z,17.63
2022-10-10T17:48:58.703Z,17.42
2022-10-10T17:51:43.045Z,18.20
2022-10-10T17:54:31.704Z,17.92
2022-10-10T17:57:20.691Z,17.27
2022-10-10T18:00:16.846Z,17.17
2022-10-10T18:03:08.937Z,17.52
2022-10-10T18:05:50.665Z,17.42
2022-10-10T18:08:40.166Z,18.98
2022-10-10T18:11:27.725Z,18.08
2022-10-10T18:14:17.451Z,18.52
2022-10-10T18:17:00.731Z,19.85
2022-10-10T18:19:49.047Z,17.95
2022-10-10T18:22:31.689Z,18.83
2022-10-10T18:25:24.222Z,18.58
2022-10-10T18:28:07.882Z,19.35
2022-10-10T18:30:56.048Z,18.80
2022-10-10T18:33:38.741Z,19.17
2022-10-10T18:36:33.031Z,18.33
2022-10-10T18:39:19.689Z,19.55
2022-10-10T18:42:07.982Z,18.40
2022-10-10T18:44:50.707Z,19.23
2022-10-10T18:47:40.202Z,19.60
2022-10-10T18:50:22.727Z,19.40
2022-10-10T18:53:04.958Z,19.70
2022-10-10T18:55:53.713Z,19.40
2022-10-10T18:58:43.961Z,19.20
2022-10-10T19:01:43.756Z,20.10
2022-10-10T19:04:33.153Z,20.60
2022-10-10T19:07:15.675Z,19.63
2022-10-10T19:09:57.895Z,19.88
2022-10-10T19:12:47.662Z,20.60
2022-10-10T19:15:36.595Z,20.77
2022-10-10T19:18:19.717Z,19.80
2022-10-10T19:21:04.673Z,19.70
2022-10-10T19:23:53.670Z,18.67
2022-10-10T19:26:36.914Z,20.75
2022-10-10T19:29:26.746Z,21.60
2022-10-10T19:32:15.588Z,23.08
2022-10-10T19:34:58.680Z,22.98
2022-10-10T19:37:41.083Z,24.27
2022-10-10T19:40:29.974Z,25.38
2022-10-10T19:43:18.652Z,27.92
2022-10-10T19:46:01.357Z,26.55
2022-10-10T19:48:51.741Z,27.45
2022-10-10T19:51:35.939Z,28.42
2022-10-10T19:54:24.751Z,29.33
2022-10-10T19:57:07.131Z,29.05
2022-10-10T19:59:55.735Z,29.48
2022-10-10T20:02:52.935Z,30.77
2022-10-10T20:05:35.658Z,31.98
2022-10-10T20:08:24.673Z,31.42
2022-10-10T20:11:07.181Z,31.80
2022-10-10T20:13:59.670Z,31.83
2022-10-10T20:16:41.986Z,30.58
2022-10-10T20:19:30.654Z,33.25
2022-10-10T20:22:12.947Z,33.05
2022-10-10T20:25:01.649Z,32.90
2022-10-10T20:27:43.940Z,32.80
2022-10-10T20:30:32.988Z,32.35
2022-10-10T20:33:14.943Z,35.13
2022-10-10T20:36:03.891Z,33.70
2022-10-10T20:38:46.936Z,33.60
2022-10-10T20:41:38.686Z,34.10
2022-10-10T20:44:22.938Z,34.22
2022-10-10T20:47:11.667Z,34.22
2022-10-10T20:49:53.935Z,34.58
2022-10-10T20:52:42.680Z,32.92
2022-10-10T20:55:31.658Z,32.53
2022-10-10T20:58:13.842Z,31.55
2022-10-10T21:01:02.673Z,33.67
2022-10-10T21:03:46.365Z,33.17
2022-10-10T21:06:38.677Z,32.75
2022-10-10T21:09:20.916Z,29.90
2022-10-10T21:12:09.678Z,28.73
2022-10-10T21:14:58.568Z,28.30
2022-10-10T21:17:47.668Z,27.40
2022-10-10T21:20:36.580Z,28.75
2022-10-10T21:23:25.699Z,31.08
2022-10-10T21:26:28.972Z,30.50
2022-10-10T21:29:12.738Z,29.92
2022-10-10T21:31:54.844Z,30.27
2022-10-10T21:34:43.635Z,31.67
2022-10-10T21:37:28.205Z,31.90
2022-10-10T21:40:16.672Z,31.27
2022-10-10T21:43:05.025Z,33.20
2022-10-10T21:45:47.656Z,32.58
2022-10-10T21:48:29.833Z,31.90
2022-10-10T21:51:19.664Z,31.60
2022-10-10T21:54:08.733Z,30.52
2022-10-10T21:56:51.946Z,32.63
2022-10-10T21:59:40.678Z,33.10
2022-10-10T22:02:35.510Z,30.98
2022-10-10T22:05:39.649Z,30.25
2022-10-10T22:08:28.713Z,32.38
2022-10-10T22:11:12.922Z,31.15
2022-10-10T22:14:01.637Z,31.00
2022-10-10T22:16:50.659Z,31.67
2022-10-10T22:19:32.873Z,30.10
2022-10-10T22:22:21.726Z,29.35
2022-10-10T22:25:10.933Z,31.05
2022-10-10T22:27:57.113Z,28.75
2022-10-10T22:30:46.675Z,30.77
2022-10-10T22:33:28.921Z,34.50
2022-10-10T22:36:17.705Z,51.25
2022-10-10T22:38:59.945Z,60.58
2022-10-10T22:41:48.731Z,55.75
2022-10-10T22:44:30.914Z,50.17
2022-10-10T22:47:20.050Z,53.30
2022-10-10T22:50:01.958Z,55.50
2022-10-10T22:52:50.666Z,54.58
2022-10-10T22:55:32.970Z,53.47
2022-10-10T22:58:21.717Z,49.05
2022-10-10T23:01:14.006Z,44.83
2022-10-10T23:03:56.641Z,45.60
2022-10-10T23:06:46.007Z,46.60
2022-10-10T23:09:27.648Z,46.22
2022-10-10T23:12:16.935Z,50.42
2022-10-10T23:14:59.680Z,46.53
2022-10-10T23:17:47.914Z,48.35
2022-10-10T23:20:30.634Z,48.80
2022-10-10T23:23:18.936Z,45.90
2022-10-10T23:26:01.843Z,46.90
2022-10-10T23:28:46.710Z,44.45
2022-10-10T23:31:35.644Z,45.30
2022-10-10T23:34:24.649Z,44.03
2022-10-10T23:37:06.938Z,41.83
2022-10-10T23:39:55.641Z,43.50
2022-10-10T23:42:37.981Z,39.42
2022-10-10T23:45:26.634Z,40.30
2022-10-10T23:48:08.919Z,37.83
2022-10-10T23:50:58.037Z,38.33
2022-10-10T23:53:39.934Z,35.25
2022-10-10T23:56:28.651Z,35.90
2022-10-10T23:59:17.635Z,33.50
